Aleknagik, AK

8:56 PM AKDT on October 22, 2014 (GMT -0800)
Togiak | Change Station
CLOSE
Current Station
Airport
Location: Togiak,
Elevation: 20 ft
Nearby Weather Stations

Elev 20 ft 59.05 °N, 160.40 °W | Updated 20 minutes ago

Clear
Clear
28 °F
Feels Like 17 °F
N
16
Wind Variable Wind from WNW

Today
High -- | Low -- °F
--% Chance of Precip.
Yesterday
High -- | Low -- °F
Precip. -- in
9:29 AM 7:06 PM
Waning Crescent, 1% visible
Pressure 29.82 in
Visibility 10.0 miles
Clouds Clear
Windchill 17 °F
Dew Point 23 °F
Humidity 80%
Rainfall 0.00 in
Snow Depth Not available.
UV 0 out of 12
Pollen Not available.
Air Quality Not available.
Flu Activity Sporadic
METAR PATG 230436Z AUTO 30014KT 10SM CLR M02/M05 A2982 RMK AO1

More Conditions Fewer Conditions

Pressure 29.82 in
Visibility 10.0 miles
Clouds Clear
Windchill 17 °F
Dew Point 23 °F
Humidity 80%
Rainfall 0.00 in
Snow Depth Not available.
UV 0 out of 12
Pollen Not available.
Air Quality Not available.
Flu Activity Sporadic
METAR PATG 230436Z AUTO 30014KT 10SM CLR M02/M05 A2982 RMK AO1

More Conditions Fewer Conditions

10-Day Weather Forecast

Almanac

Astronomy

Oct. 22, 2014 Rise Set
Actual Time 9:29 AM AKDT 7:06 PM AKDT
Civil Twilight 8:47 AM AKDT 7:49 PM AKDT
Nautical Twilight 8:00 AM AKDT 8:36 PM AKDT
Astronomical Twilight 7:12 AM AKDT 9:23 PM AKDT
Moon 8:07 AM AKDT (10/22) 6:49 PM AKDT (10/22)
Length of Visible Light 11h 01m
Length of Day
9h 36m
Tomorrow will be 5m 8s shorter.
Waning Crescent, 1% of the Moon is Illuminated
Oct 23
Waning Crescent
Oct 23
New
Oct 30
First Quarter
Nov 6
Full
Nov 14
Last Quarter

Yesterday's Extremes

State Highs State Lows

Community

WunderPhotos

Upload Photos

1,764,154 photos uploaded!

Nearby

Snow Depth

Station Depth Elevation
Port Graham 0 in 300 ft
Mcneil Canyon 1 in 1320 ft
Cooper Lake 1 in 1200 ft
Point Mackenzie 1 in 200 ft
Summit Creek 3 in 1400 ft

Earthquake Activity

City Distance Mag. Time & Date
No recent earthquake activity has been reported nearby.
Minimum magnitude displayed is 2.5.

Coastal Water Temperatures

Place Temperature
No Stations Reporting

Nearby Weather Stations